Pitcairn, Pennsylvania
Current Conditions -  °F | °C
As of 2:53 PM on Thursday 27 Nov 2014 (Local Time) from KAGC Reporting Station
Haze Haze  
Wind Chill: 26°   Ceiling: 1500
Heat Index: 34°   Visibility: 4mi
Dew Point: 27°   Wind: 10mph
Humidity: 75%   Direction: 290°WNW
Pressure: 30.05"   Gusts: 17mph
Location:  40.4°N, 79.78°W
Report Text: KAGC 271953Z 29009G15KT 4SM HZ BKN015 BKN022 OVC046 01/M03 A3005 RMK AO2 SNE26 SLP194 P0000 T00111028
Loading
Personal Weather Stations






























Interactive Weather Map New forecast layout! Learn more

10-Day Weather Forecast

Advertisements
Track Severe Weather on mobile